PWSweather.com
Personal Weather Stations
Station Observations

PoschiavoCH

Lat: 46.31962499999999, Lon: 10.066551000000004

Elevation: 3517

Station Type: WH 1080

http://www.meteoposchiavo.com

High Low Average
Temperature 65.0°F18.3°C 26.0°F-3.3°C 37.9°F3.3°C
Dew Point 34.2°F1.2°C 17.1°F-8.3°C 25.1°F-3.8°C
Winds 3.5 mph 5.6 kmh Calm Calm Calm SCalm S
Wind Gusts 5.8 mph9.3 kmh -- --
Humidity 97% 20% 66%
Pressure 26.60 in900.8 mb 26.36 in892.7 mb -
Precipitation 0.01 in0.3 mm - -
Hour Temp Dew Point Humidity Winds Wind Gusts Pressure Precip Precip Rate Daily Precip Total
12:00 AM 35.0°F1.7°C 34.2°F1.2°C 97% Calm Calm -- 26.36 in892.7 mb - 0.00 in0.0 mm 0.00 in0.0 mm
12:10 AM 35.0°F1.7°C 34.2°F1.2°C 97% Calm Calm -- 26.36 in892.7 mb - 0.00 in0.0 mm 0.00 in0.0 mm
12:15 AM 35.0°F1.7°C 34.2°F1.2°C 97% Calm Calm -- 26.36 in892.7 mb - 0.00 in0.0 mm 0.00 in0.0 mm
12:20 AM 35.0°F1.7°C 34.2°F1.2°C 97% Calm Calm -- 26.36 in892.7 mb - 0.00 in0.0 mm 0.00 in0.0 mm
12:25 AM 35.0°F1.7°C 34.2°F1.2°C 97% Calm Calm -- 26.36 in892.7 mb - 0.00 in0.0 mm 0.00 in0.0 mm
12:30 AM 35.0°F1.7°C 34.2°F1.2°C 97% Calm Calm -- 26.36 in892.7 mb - 0.00 in0.0 mm 0.00 in0.0 mm
12:35 AM 35.0°F1.7°C 34.2°F1.2°C 97% Calm Calm -- 26.36 in892.7 mb - 0.00 in0.0 mm 0.00 in0.0 mm
12:40 AM 35.0°F1.7°C 34.2°F1.2°C 97% Calm Calm -- 26.36 in892.7 mb - 0.00 in0.0 mm 0.00 in0.0 mm
12:45 AM 35.0°F1.7°C 34.2°F1.2°C 97% Calm Calm -- 26.36 in892.7 mb - 0.00 in0.0 mm 0.00 in0.0 mm
12:50 AM 35.0°F1.7°C 34.2°F1.2°C 97% Calm Calm -- 26.36 in892.7 mb - 0.00 in0.0 mm 0.00 in0.0 mm
12:55 AM 35.0°F1.7°C 34.2°F1.2°C 97% Calm Calm -- 26.36 in892.7 mb - 0.00 in0.0 mm 0.00 in0.0 mm
01:00 AM 35.0°F1.7°C 34.2°F1.2°C 97% Calm Calm -- 26.36 in892.7 mb - 0.00 in0.0 mm 0.00 in0.0 mm
01:10 AM 31.0°F-0.6°C 30.2°F-1.0°C 97% Calm Calm -- 26.44 in895.4 mb - 0.00 in0.0 mm 0.00 in0.0 mm
01:15 AM 30.0°F-1.1°C 29.3°F-1.5°C 97% Calm Calm -- 26.44 in895.4 mb - 0.00 in0.0 mm 0.00 in0.0 mm
01:20 AM 30.0°F-1.1°C 29.0°F-1.7°C 96% Calm Calm -- 26.44 in895.4 mb - 0.00 in0.0 mm 0.00 in0.0 mm
01:25 AM 30.0°F-1.1°C 29.3°F-1.5°C 97% Calm Calm -- 26.44 in895.4 mb - 0.00 in0.0 mm 0.00 in0.0 mm
01:30 AM 30.0°F-1.1°C 29.3°F-1.5°C 97% Calm Calm -- 26.44 in895.4 mb - 0.00 in0.0 mm 0.00 in0.0 mm
01:35 AM 30.0°F-1.1°C 29.3°F-1.5°C 97% Calm Calm -- 26.44 in895.4 mb - 0.00 in0.0 mm 0.00 in0.0 mm
01:40 AM 30.0°F-1.1°C 29.3°F-1.5°C 97% Calm Calm -- 26.44 in895.4 mb - 0.00 in0.0 mm 0.00 in0.0 mm
01:45 AM 30.0°F-1.1°C 29.3°F-1.5°C 97% Calm Calm -- 26.44 in895.4 mb - 0.00 in0.0 mm 0.00 in0.0 mm
01:50 AM 30.0°F-1.1°C 29.0°F-1.7°C 96% Calm Calm -- 26.44 in895.4 mb - 0.00 in0.0 mm 0.00 in0.0 mm
01:55 AM 30.0°F-1.1°C 28.7°F-1.8°C 95% Calm Calm -- 26.44 in895.4 mb - 0.00 in0.0 mm 0.00 in0.0 mm
02:00 AM 30.0°F-1.1°C 29.0°F-1.7°C 96% Calm Calm -- 26.44 in895.4 mb - 0.00 in0.0 mm 0.00 in0.0 mm
02:10 AM 30.0°F-1.1°C 28.7°F-1.8°C 95% Calm Calm -- 26.44 in895.4 mb - 0.00 in0.0 mm 0.00 in0.0 mm
02:15 AM 30.0°F-1.1°C 29.0°F-1.7°C 96% Calm Calm -- 26.44 in895.4 mb - 0.00 in0.0 mm 0.00 in0.0 mm
02:20 AM 30.0°F-1.1°C 28.7°F-1.8°C 95% Calm Calm -- 26.44 in895.4 mb - 0.00 in0.0 mm 0.00 in0.0 mm
02:25 AM 30.0°F-1.1°C 29.0°F-1.7°C 96% Calm Calm -- 26.45 in895.7 mb - 0.00 in0.0 mm 0.00 in0.0 mm
02:30 AM 29.0°F-1.7°C 28.3°F-2.1°C 97% Calm Calm -- 26.46 in896.0 mb - 0.00 in0.0 mm 0.00 in0.0 mm
02:35 AM 29.0°F-1.7°C 28.0°F-2.2°C 96% Calm Calm -- 26.45 in895.7 mb - 0.00 in0.0 mm 0.00 in0.0 mm
02:40 AM 29.0°F-1.7°C 28.0°F-2.2°C 96% Calm Calm -- 26.45 in895.7 mb - 0.00 in0.0 mm 0.00 in0.0 mm
02:45 AM 29.0°F-1.7°C 28.0°F-2.2°C 96% Calm Calm -- 26.45 in895.7 mb - 0.00 in0.0 mm 0.00 in0.0 mm
02:50 AM 29.0°F-1.7°C 28.0°F-2.2°C 96% Calm Calm -- 26.45 in895.7 mb - 0.00 in0.0 mm 0.00 in0.0 mm
02:55 AM 29.0°F-1.7°C 28.0°F-2.2°C 96% Calm Calm -- 26.46 in896.0 mb - 0.00 in0.0 mm 0.00 in0.0 mm
03:00 AM 29.0°F-1.7°C 28.0°F-2.2°C 96% Calm Calm -- 26.46 in896.0 mb - 0.00 in0.0 mm 0.00 in0.0 mm
03:10 AM 29.0°F-1.7°C 27.7°F-2.4°C 95% Calm Calm -- 26.46 in896.0 mb - 0.00 in0.0 mm 0.00 in0.0 mm
03:15 AM 29.0°F-1.7°C 27.5°F-2.5°C 94% Calm Calm -- 26.46 in896.0 mb - 0.00 in0.0 mm 0.00 in0.0 mm
03:20 AM 29.0°F-1.7°C 27.7°F-2.4°C 95% Calm Calm -- 26.46 in896.0 mb - 0.00 in0.0 mm 0.00 in0.0 mm
03:25 AM 29.0°F-1.7°C 28.0°F-2.2°C 96% Calm Calm -- 26.45 in895.7 mb - 0.00 in0.0 mm 0.00 in0.0 mm
03:30 AM 29.0°F-1.7°C 27.7°F-2.4°C 95% Calm Calm -- 26.46 in896.0 mb - 0.00 in0.0 mm 0.00 in0.0 mm
03:35 AM 29.0°F-1.7°C 27.7°F-2.4°C 95% Calm Calm -- 26.46 in896.0 mb - 0.00 in0.0 mm 0.00 in0.0 mm
03:40 AM 29.0°F-1.7°C 27.7°F-2.4°C 95% Calm Calm -- 26.46 in896.0 mb - 0.00 in0.0 mm 0.00 in0.0 mm
03:45 AM 29.0°F-1.7°C 28.0°F-2.2°C 96% Calm Calm -- 26.46 in896.0 mb - 0.00 in0.0 mm 0.00 in0.0 mm
03:50 AM 28.0°F-2.2°C 26.8°F-2.9°C 95% Calm Calm -- 26.46 in896.0 mb - 0.00 in0.0 mm 0.00 in0.0 mm
03:55 AM 29.0°F-1.7°C 27.7°F-2.4°C 95% Calm Calm -- 26.45 in895.7 mb - 0.00 in0.0 mm 0.00 in0.0 mm
04:00 AM 29.0°F-1.7°C 27.5°F-2.5°C 94% Calm Calm -- 26.46 in896.0 mb - 0.00 in0.0 mm 0.00 in0.0 mm
04:10 AM 29.0°F-1.7°C 27.5°F-2.5°C 94% Calm Calm -- 26.46 in896.0 mb - 0.00 in0.0 mm 0.00 in0.0 mm
04:15 AM 28.0°F-2.2°C 26.8°F-2.9°C 95% Calm Calm -- 26.46 in896.0 mb - 0.00 in0.0 mm 0.00 in0.0 mm
04:20 AM 28.0°F-2.2°C 26.8°F-2.9°C 95% Calm Calm -- 26.46 in896.0 mb - 0.00 in0.0 mm 0.00 in0.0 mm
04:25 AM 28.0°F-2.2°C 26.5°F-3.1°C 94% Calm Calm -- 26.46 in896.0 mb - 0.00 in0.0 mm 0.00 in0.0 mm
04:30 AM 28.0°F-2.2°C 26.5°F-3.1°C 94% Calm Calm -- 26.46 in896.0 mb - 0.00 in0.0 mm 0.00 in0.0 mm
04:35 AM 28.0°F-2.2°C 26.5°F-3.1°C 94% Calm Calm -- 26.46 in896.0 mb - 0.00 in0.0 mm 0.00 in0.0 mm
04:40 AM 28.0°F-2.2°C 26.2°F-3.2°C 93% Calm Calm -- 26.46 in896.0 mb - 0.00 in0.0 mm 0.00 in0.0 mm
04:45 AM 28.0°F-2.2°C 26.5°F-3.1°C 94% Calm Calm -- 26.46 in896.0 mb - 0.00 in0.0 mm 0.00 in0.0 mm
04:50 AM 27.0°F-2.8°C 25.0°F-3.9°C 92% Calm Calm -- 26.46 in896.0 mb - 0.00 in0.0 mm 0.00 in0.0 mm
04:55 AM 28.0°F-2.2°C 26.5°F-3.1°C 94% Calm Calm -- 26.46 in896.0 mb - 0.00 in0.0 mm 0.00 in0.0 mm
05:00 AM 27.0°F-2.8°C 25.8°F-3.4°C 95% Calm Calm -- 26.46 in896.0 mb - 0.00 in0.0 mm 0.00 in0.0 mm
05:10 AM 28.0°F-2.2°C 26.2°F-3.2°C 93% Calm Calm -- 26.46 in896.0 mb - 0.00 in0.0 mm 0.00 in0.0 mm
05:15 AM 28.0°F-2.2°C 26.5°F-3.1°C 94% Calm Calm -- 26.47 in896.4 mb - 0.00 in0.0 mm 0.00 in0.0 mm
05:20 AM 27.6°F-2.4°C 25.6°F-3.6°C 92% Calm Calm -- 26.47 in896.4 mb - 0.00 in0.0 mm 0.00 in0.0 mm
05:25 AM 27.0°F-2.8°C 24.5°F-4.2°C 90% Calm Calm -- 26.47 in896.4 mb - 0.00 in0.0 mm 0.00 in0.0 mm
05:30 AM 27.0°F-2.8°C 25.5°F-3.6°C 94% Calm Calm -- 26.48 in896.7 mb - 0.00 in0.0 mm 0.00 in0.0 mm
05:35 AM 27.0°F-2.8°C 25.0°F-3.9°C 92% Calm Calm -- 26.47 in896.4 mb - 0.00 in0.0 mm 0.00 in0.0 mm
05:40 AM 27.0°F-2.8°C 24.7°F-4.1°C 91% Calm Calm -- 26.47 in896.4 mb - 0.00 in0.0 mm 0.00 in0.0 mm
05:45 AM 27.0°F-2.8°C 25.2°F-3.8°C 93% Calm Calm -- 26.48 in896.7 mb - 0.00 in0.0 mm 0.00 in0.0 mm
05:50 AM 27.0°F-2.8°C 25.0°F-3.9°C 92% Calm Calm -- 26.48 in896.7 mb - 0.00 in0.0 mm 0.00 in0.0 mm
05:55 AM 27.0°F-2.8°C 25.5°F-3.6°C 94% Calm Calm -- 26.48 in896.7 mb - 0.00 in0.0 mm 0.00 in0.0 mm
06:00 AM 27.0°F-2.8°C 25.0°F-3.9°C 92% Calm Calm -- 26.48 in896.7 mb - 0.00 in0.0 mm 0.00 in0.0 mm
06:10 AM 27.0°F-2.8°C 24.7°F-4.1°C 91% Calm Calm -- 26.48 in896.7 mb - 0.00 in0.0 mm 0.00 in0.0 mm
06:15 AM 27.0°F-2.8°C 24.5°F-4.2°C 90% Calm Calm -- 26.48 in896.7 mb - 0.00 in0.0 mm 0.00 in0.0 mm
06:20 AM 27.0°F-2.8°C 24.7°F-4.1°C 91% Calm Calm -- 26.49 in897.1 mb - 0.00 in0.0 mm 0.00 in0.0 mm
06:25 AM 27.0°F-2.8°C 25.5°F-3.6°C 94% Calm Calm -- 26.48 in896.7 mb - 0.00 in0.0 mm 0.00 in0.0 mm
06:30 AM 27.0°F-2.8°C 25.2°F-3.8°C 93% Calm Calm -- 26.48 in896.7 mb - 0.00 in0.0 mm 0.00 in0.0 mm
06:35 AM 27.0°F-2.8°C 25.5°F-3.6°C 94% Calm Calm -- 26.48 in896.7 mb - 0.00 in0.0 mm 0.00 in0.0 mm
06:40 AM 27.0°F-2.8°C 24.7°F-4.1°C 91% Calm Calm -- 26.49 in897.1 mb - 0.00 in0.0 mm 0.00 in0.0 mm
06:45 AM 27.0°F-2.8°C 24.2°F-4.3°C 89% Calm Calm -- 26.49 in897.1 mb - 0.00 in0.0 mm 0.00 in0.0 mm
06:50 AM 27.0°F-2.8°C 23.9°F-4.5°C 88% Calm Calm -- 26.49 in897.1 mb - 0.00 in0.0 mm 0.00 in0.0 mm
06:55 AM 27.0°F-2.8°C 24.5°F-4.2°C 90% Calm Calm -- 26.48 in896.7 mb - 0.00 in0.0 mm 0.00 in0.0 mm
07:00 AM 27.0°F-2.8°C 24.5°F-4.2°C 90% Calm Calm -- 26.48 in896.7 mb - 0.00 in0.0 mm 0.00 in0.0 mm
07:10 AM 27.0°F-2.8°C 24.5°F-4.2°C 90% Calm Calm -- 26.49 in897.1 mb - 0.00 in0.0 mm 0.00 in0.0 mm
07:15 AM 27.0°F-2.8°C 23.9°F-4.5°C 88% Calm Calm -- 26.49 in897.1 mb - 0.00 in0.0 mm 0.00 in0.0 mm
07:20 AM 26.0°F-3.3°C 23.5°F-4.7°C 90% Calm Calm -- 26.49 in897.1 mb - 0.00 in0.0 mm 0.00 in0.0 mm
07:25 AM 26.0°F-3.3°C 24.0°F-4.4°C 92% Calm Calm -- 26.49 in897.1 mb - 0.00 in0.0 mm 0.00 in0.0 mm
07:30 AM 27.0°F-2.8°C 24.5°F-4.2°C 90% Calm Calm -- 26.49 in897.1 mb - 0.00 in0.0 mm 0.00 in0.0 mm
07:35 AM 27.0°F-2.8°C 25.0°F-3.9°C 92% Calm Calm -- 26.49 in897.1 mb - 0.00 in0.0 mm 0.00 in0.0 mm
07:40 AM 27.0°F-2.8°C 25.0°F-3.9°C 92% Calm Calm -- 26.49 in897.1 mb - 0.00 in0.0 mm 0.00 in0.0 mm
07:45 AM 27.0°F-2.8°C 24.5°F-4.2°C 90% Calm Calm -- 26.49 in897.1 mb - 0.00 in0.0 mm 0.00 in0.0 mm
07:50 AM 27.0°F-2.8°C 24.2°F-4.3°C 89% Calm Calm -- 26.49 in897.1 mb - 0.00 in0.0 mm 0.00 in0.0 mm
07:55 AM 27.0°F-2.8°C 24.5°F-4.2°C 90% Calm Calm -- 26.49 in897.1 mb - 0.00 in0.0 mm 0.00 in0.0 mm
08:00 AM 27.0°F-2.8°C 24.5°F-4.2°C 90% Calm Calm -- 26.49 in897.1 mb - 0.00 in0.0 mm 0.00 in0.0 mm
08:10 AM 27.0°F-2.8°C 24.7°F-4.1°C 91% Calm Calm -- 26.49 in897.1 mb - 0.00 in0.0 mm 0.00 in0.0 mm
08:15 AM 27.0°F-2.8°C 24.7°F-4.1°C 91% Calm Calm -- 26.50 in897.4 mb - 0.00 in0.0 mm 0.00 in0.0 mm
08:20 AM 28.0°F-2.2°C 24.1°F-4.4°C 85% Calm Calm -- 26.49 in897.1 mb - 0.00 in0.0 mm 0.00 in0.0 mm
08:25 AM 28.0°F-2.2°C 25.2°F-3.8°C 89% Calm Calm -- 26.49 in897.1 mb - 0.00 in0.0 mm 0.00 in0.0 mm
08:30 AM 28.0°F-2.2°C 24.4°F-4.2°C 86% Calm Calm -- 26.50 in897.4 mb - 0.00 in0.0 mm 0.00 in0.0 mm
08:35 AM 28.0°F-2.2°C 24.4°F-4.2°C 86% Calm Calm -- 26.50 in897.4 mb - 0.00 in0.0 mm 0.00 in0.0 mm
08:40 AM 28.0°F-2.2°C 25.7°F-3.5°C 91% Calm Calm -- 26.51 in897.7 mb - 0.00 in0.0 mm 0.00 in0.0 mm
08:45 AM 27.0°F-2.8°C 24.5°F-4.2°C 90% Calm Calm -- 26.50 in897.4 mb - 0.00 in0.0 mm 0.00 in0.0 mm
08:50 AM 28.0°F-2.2°C 25.2°F-3.8°C 89% Calm Calm -- 26.50 in897.4 mb - 0.00 in0.0 mm 0.00 in0.0 mm
08:55 AM 29.0°F-1.7°C 26.2°F-3.2°C 89% Calm Calm -- 26.50 in897.4 mb - 0.00 in0.0 mm 0.00 in0.0 mm
09:00 AM 30.0°F-1.1°C 26.6°F-3.0°C 87% Calm Calm -- 26.49 in897.1 mb - 0.00 in0.0 mm 0.00 in0.0 mm
09:10 AM 31.0°F-0.6°C 26.7°F-2.9°C 84% Calm Calm -- 26.49 in897.1 mb - 0.00 in0.0 mm 0.00 in0.0 mm
09:15 AM 31.0°F-0.6°C 27.3°F-2.6°C 86% Calm Calm -- 26.49 in897.1 mb - 0.00 in0.0 mm 0.00 in0.0 mm
09:20 AM 31.4°F-0.3°C 27.4°F-2.6°C 85% Calm Calm -- 26.49 in897.1 mb - 0.00 in0.0 mm 0.00 in0.0 mm
09:25 AM 32.0°F0.0°C 27.7°F-2.4°C 84% Calm Calm -- 26.49 in897.1 mb - 0.00 in0.0 mm 0.00 in0.0 mm
09:30 AM 32.0°F0.0°C 26.5°F-3.1°C 80% Calm Calm -- 26.49 in897.1 mb - 0.00 in0.0 mm 0.00 in0.0 mm
09:35 AM 33.0°F0.6°C 28.4°F-2.0°C 83% Calm Calm -- 26.49 in897.1 mb - 0.00 in0.0 mm 0.00 in0.0 mm
09:40 AM 34.0°F1.1°C 27.5°F-2.5°C 77% Calm Calm -- 26.49 in897.1 mb - 0.00 in0.0 mm 0.00 in0.0 mm
09:45 AM 35.0°F1.7°C 27.9°F-2.3°C 75% Calm Calm -- 26.48 in896.7 mb - 0.00 in0.0 mm 0.00 in0.0 mm
09:50 AM 35.0°F1.7°C 27.9°F-2.3°C 75% Calm Calm -- 26.49 in897.1 mb - 0.00 in0.0 mm 0.00 in0.0 mm
09:55 AM 36.0°F2.2°C 28.2°F-2.1°C 73% Calm Calm -- 26.49 in897.1 mb - 0.00 in0.0 mm 0.00 in0.0 mm
10:00 AM 37.0°F2.8°C 27.8°F-2.3°C 69% Calm Calm -- 26.48 in896.7 mb - 0.00 in0.0 mm 0.00 in0.0 mm
10:10 AM 37.0°F2.8°C 28.5°F-1.9°C 71% Calm Calm -- 26.48 in896.7 mb - 0.00 in0.0 mm 0.00 in0.0 mm
10:15 AM 37.0°F2.8°C 29.1°F-1.6°C 73% Calm Calm -- 26.47 in896.4 mb - 0.00 in0.0 mm 0.00 in0.0 mm
10:20 AM 37.0°F2.8°C 28.1°F-2.2°C 70% Calm Calm -- 26.48 in896.7 mb - 0.00 in0.0 mm 0.00 in0.0 mm
10:25 AM 37.0°F2.8°C 27.1°F-2.7°C 67% Calm Calm -- 26.48 in896.7 mb - 0.00 in0.0 mm 0.00 in0.0 mm
10:30 AM 38.0°F3.3°C 25.7°F-3.5°C 61% Calm Calm -- 26.48 in896.7 mb - 0.00 in0.0 mm 0.00 in0.0 mm
10:35 AM 39.0°F3.9°C 25.9°F-3.4°C 59% Calm Calm -- 26.47 in896.4 mb - 0.00 in0.0 mm 0.00 in0.0 mm
10:40 AM 40.0°F4.4°C 26.0°F-3.3°C 57% Calm Calm -- 26.47 in896.4 mb - 0.00 in0.0 mm 0.00 in0.0 mm
10:45 AM 43.0°F6.1°C 30.1°F-1.1°C 60% Calm Calm -- 26.46 in896.0 mb - 0.00 in0.0 mm 0.00 in0.0 mm
10:50 AM 44.6°F7.0°C 29.9°F-1.2°C 56% Calm Calm -- 26.46 in896.0 mb - 0.01 in0.3 mm 0.01 in0.3 mm
10:55 AM 45.0°F7.2°C 29.8°F-1.2°C 55% Calm Calm -- 26.46 in896.0 mb - 0.01 in0.3 mm 0.01 in0.3 mm
11:00 AM 45.0°F7.2°C 29.8°F-1.2°C 55% Calm Calm -- 26.47 in896.4 mb - 0.01 in0.3 mm 0.01 in0.3 mm
11:10 AM 44.0°F6.7°C 27.5°F-2.5°C 52% Calm Calm -- 26.46 in896.0 mb - 0.01 in0.3 mm 0.01 in0.3 mm
11:15 AM 46.0°F7.8°C 28.4°F-2.0°C 50% Calm Calm -- 26.46 in896.0 mb - 0.01 in0.3 mm 0.01 in0.3 mm
11:20 AM 48.0°F8.9°C 33.5°F0.8°C 57% Calm Calm -- 26.46 in896.0 mb - 0.01 in0.3 mm 0.01 in0.3 mm
11:25 AM 50.0°F10.0°C 27.8°F-2.3°C 42% Calm Calm -- 26.46 in896.0 mb - 0.01 in0.3 mm 0.01 in0.3 mm
11:30 AM 50.0°F10.0°C 27.8°F-2.3°C 42% Calm Calm -- 26.46 in896.0 mb - 0.01 in0.3 mm 0.01 in0.3 mm
11:35 AM 50.0°F10.0°C 28.9°F-1.7°C 44% Calm Calm -- 26.46 in896.0 mb - 0.01 in0.3 mm 0.01 in0.3 mm
11:40 AM 50.0°F10.0°C 26.6°F-3.0°C 40% Calm Calm -- 26.46 in896.0 mb - 0.01 in0.3 mm 0.01 in0.3 mm
11:45 AM 50.0°F10.0°C 23.4°F-4.8°C 35% Calm Calm -- 26.46 in896.0 mb - 0.01 in0.3 mm 0.01 in0.3 mm
11:50 AM 51.0°F10.6°C 26.9°F-2.8°C 39% Calm Calm -- 26.46 in896.0 mb - 0.01 in0.3 mm 0.01 in0.3 mm
11:55 AM 52.0°F11.1°C 27.8°F-2.3°C 39% Calm Calm -- 26.46 in896.0 mb - 0.00 in0.0 mm 0.01 in0.3 mm
12:00 PM 53.0°F11.7°C 27.4°F-2.6°C 37% Calm Calm -- 26.45 in895.7 mb - 0.00 in0.0 mm 0.01 in0.3 mm
12:10 PM 52.0°F11.1°C 29.0°F-1.7°C 41% Calm Calm -- 26.44 in895.4 mb - 0.00 in0.0 mm 0.01 in0.3 mm
12:15 PM 54.0°F12.2°C 24.8°F-4.0°C 32% Calm Calm -- 26.44 in895.4 mb - 0.00 in0.0 mm 0.01 in0.3 mm
12:20 PM 55.0°F12.8°C 24.9°F-3.9°C 31% Calm Calm -- 26.44 in895.4 mb - 0.00 in0.0 mm 0.01 in0.3 mm
12:25 PM 55.0°F12.8°C 22.4°F-5.3°C 28% Calm Calm -- 26.43 in895.0 mb - 0.00 in0.0 mm 0.01 in0.3 mm
12:30 PM 53.1°F11.7°C 19.1°F-7.2°C 26% Calm Calm -- 26.43 in895.0 mb - 0.00 in0.0 mm 0.01 in0.3 mm
12:35 PM 55.0°F12.8°C 27.8°F-2.3°C 35% Calm Calm -- 26.43 in895.0 mb - 0.00 in0.0 mm 0.01 in0.3 mm
12:40 PM 55.0°F12.8°C 20.7°F-6.3°C 26% 1.2 mph WNW1.9 kmh WNW 1.2 mph1.9 kmh 26.43 in895.0 mb - 0.00 in0.0 mm 0.01 in0.3 mm
12:45 PM 53.0°F11.7°C 19.0°F-7.2°C 26% 1.2 mph WNW1.9 kmh WNW 1.2 mph1.9 kmh 26.41 in894.3 mb - 0.00 in0.0 mm 0.01 in0.3 mm
12:50 PM 54.0°F12.2°C 24.0°F-4.4°C 31% Calm Calm -- 26.41 in894.3 mb - 0.00 in0.0 mm 0.01 in0.3 mm
12:55 PM 55.0°F12.8°C 18.8°F-7.3°C 24% Calm Calm 1.2 mph1.9 kmh 26.41 in894.3 mb - 0.00 in0.0 mm 0.01 in0.3 mm
01:00 PM 53.0°F11.7°C 17.1°F-8.3°C 24% Calm Calm -- 26.41 in894.3 mb - 0.00 in0.0 mm 0.01 in0.3 mm
01:10 PM 53.0°F11.7°C 18.1°F-7.7°C 25% Calm Calm 2.3 mph3.7 kmh 26.41 in894.3 mb - 0.00 in0.0 mm 0.01 in0.3 mm
01:15 PM 53.2°F11.8°C 19.2°F-7.1°C 26% Calm Calm 1.2 mph1.9 kmh 26.41 in894.3 mb - 0.00 in0.0 mm 0.01 in0.3 mm
01:20 PM 54.0°F12.2°C 21.6°F-5.8°C 28% 1.2 mph WNW1.9 kmh WNW 1.2 mph1.9 kmh 26.41 in894.3 mb - 0.00 in0.0 mm 0.01 in0.3 mm
01:25 PM 55.0°F12.8°C 21.6°F-5.8°C 27% Calm Calm 1.2 mph1.9 kmh 26.40 in894.0 mb - 0.00 in0.0 mm 0.01 in0.3 mm
01:30 PM 55.0°F12.8°C 19.8°F-6.8°C 25% 1.2 mph WNW1.9 kmh WNW 1.2 mph1.9 kmh 26.40 in894.0 mb - 0.00 in0.0 mm 0.01 in0.3 mm
01:35 PM 54.0°F12.2°C 18.0°F-7.8°C 24% Calm Calm -- 26.40 in894.0 mb - 0.00 in0.0 mm 0.01 in0.3 mm
01:40 PM 52.0°F11.1°C 20.7°F-6.3°C 29% 1.2 mph WNW1.9 kmh WNW 2.3 mph3.7 kmh 26.41 in894.3 mb - 0.00 in0.0 mm 0.01 in0.3 mm
01:45 PM 52.0°F11.1°C 23.0°F-5.0°C 32% 2.3 mph W3.7 kmh W 2.3 mph3.7 kmh 26.40 in894.0 mb - 0.00 in0.0 mm 0.01 in0.3 mm
01:50 PM 51.0°F10.6°C 17.3°F-8.2°C 26% 1.2 mph WNW1.9 kmh WNW 1.2 mph1.9 kmh 26.40 in894.0 mb - 0.00 in0.0 mm 0.01 in0.3 mm
01:55 PM 51.0°F10.6°C 19.0°F-7.2°C 28% 1.2 mph WNW1.9 kmh WNW 1.2 mph1.9 kmh 26.40 in894.0 mb - 0.00 in0.0 mm 0.01 in0.3 mm
02:00 PM 51.9°F11.1°C 18.0°F-7.8°C 26% 1.2 mph WNW1.9 kmh WNW 2.3 mph3.7 kmh 26.40 in894.0 mb - 0.00 in0.0 mm 0.01 in0.3 mm
02:10 PM 54.0°F12.2°C 19.8°F-6.8°C 26% 1.2 mph WNW1.9 kmh WNW 1.2 mph1.9 kmh 26.39 in893.7 mb - 0.00 in0.0 mm 0.01 in0.3 mm
02:15 PM 55.0°F12.8°C 18.8°F-7.3°C 24% 1.2 mph NW1.9 kmh NW 1.2 mph1.9 kmh 26.39 in893.7 mb - 0.00 in0.0 mm 0.01 in0.3 mm
02:20 PM 55.0°F12.8°C 19.8°F-6.8°C 25% Calm Calm 1.2 mph1.9 kmh 26.38 in893.3 mb - 0.00 in0.0 mm 0.01 in0.3 mm
02:25 PM 56.0°F13.3°C 21.6°F-5.8°C 26% 1.2 mph NW1.9 kmh NW 1.2 mph1.9 kmh 26.37 in893.0 mb - 0.00 in0.0 mm 0.01 in0.3 mm
02:30 PM 54.0°F12.2°C 20.7°F-6.3°C 27% 2.3 mph WSW3.7 kmh WSW 3.5 mph5.6 kmh 26.38 in893.3 mb - 0.00 in0.0 mm 0.01 in0.3 mm
02:35 PM 55.0°F12.8°C 20.7°F-6.3°C 26% 1.2 mph WNW1.9 kmh WNW 2.3 mph3.7 kmh 26.37 in893.0 mb - 0.00 in0.0 mm 0.01 in0.3 mm
02:40 PM 55.0°F12.8°C 21.6°F-5.8°C 27% 2.3 mph W3.7 kmh W 3.5 mph5.6 kmh 26.37 in893.0 mb - 0.00 in0.0 mm 0.01 in0.3 mm
02:45 PM 55.0°F12.8°C 20.7°F-6.3°C 26% 2.3 mph W3.7 kmh W 3.5 mph5.6 kmh 26.38 in893.3 mb - 0.00 in0.0 mm 0.01 in0.3 mm
02:50 PM 55.0°F12.8°C 20.7°F-6.3°C 26% 2.3 mph W3.7 kmh W 3.5 mph5.6 kmh 26.38 in893.3 mb - 0.00 in0.0 mm 0.01 in0.3 mm
02:55 PM 54.0°F12.2°C 19.8°F-6.8°C 26% Calm Calm -- 26.38 in893.3 mb - 0.00 in0.0 mm 0.01 in0.3 mm
03:00 PM 55.0°F12.8°C 19.8°F-6.8°C 25% 2.3 mph WSW3.7 kmh WSW 3.5 mph5.6 kmh 26.38 in893.3 mb - 0.00 in0.0 mm 0.01 in0.3 mm
03:10 PM 53.0°F11.7°C 20.7°F-6.3°C 28% 3.5 mph W5.6 kmh W 5.8 mph9.3 kmh 26.38 in893.3 mb - 0.00 in0.0 mm 0.01 in0.3 mm
03:15 PM 54.0°F12.2°C 19.8°F-6.8°C 26% Calm Calm -- 26.38 in893.3 mb - 0.00 in0.0 mm 0.01 in0.3 mm
03:20 PM 57.0°F13.9°C 22.4°F-5.3°C 26% Calm Calm -- 26.38 in893.3 mb - 0.00 in0.0 mm 0.01 in0.3 mm
03:25 PM 59.0°F15.0°C 22.2°F-5.4°C 24% Calm Calm 1.2 mph1.9 kmh 26.38 in893.3 mb - 0.00 in0.0 mm 0.01 in0.3 mm
03:30 PM 61.7°F16.5°C 23.5°F-4.7°C 23% Calm Calm 1.2 mph1.9 kmh 26.38 in893.3 mb - 0.00 in0.0 mm 0.01 in0.3 mm
03:35 PM 63.1°F17.3°C 23.6°F-4.7°C 22% Calm Calm -- 26.38 in893.3 mb - 0.00 in0.0 mm 0.01 in0.3 mm
03:40 PM 64.0°F17.8°C 23.2°F-4.9°C 21% Calm Calm -- 26.38 in893.3 mb - 0.00 in0.0 mm 0.01 in0.3 mm
03:45 PM 65.0°F18.3°C 22.9°F-5.1°C 20% Calm Calm 1.2 mph1.9 kmh 26.38 in893.3 mb - 0.00 in0.0 mm 0.01 in0.3 mm
03:50 PM 65.0°F18.3°C 26.3°F-3.2°C 23% Calm Calm -- 26.38 in893.3 mb - 0.00 in0.0 mm 0.01 in0.3 mm
03:55 PM 65.0°F18.3°C 24.1°F-4.4°C 21% Calm Calm -- 26.38 in893.3 mb - 0.00 in0.0 mm 0.01 in0.3 mm
04:00 PM 61.0°F16.1°C 21.8°F-5.7°C 22% 1.2 mph NW1.9 kmh NW 2.3 mph3.7 kmh 26.39 in893.7 mb - 0.00 in0.0 mm 0.01 in0.3 mm
04:10 PM 56.0°F13.3°C 24.2°F-4.3°C 29% Calm Calm -- 26.40 in894.0 mb - 0.00 in0.0 mm 0.01 in0.3 mm
04:15 PM 56.0°F13.3°C 25.0°F-3.9°C 30% 1.2 mph WNW1.9 kmh WNW 1.2 mph1.9 kmh 26.40 in894.0 mb - 0.00 in0.0 mm 0.01 in0.3 mm
04:20 PM 56.0°F13.3°C 24.2°F-4.3°C 29% 1.2 mph NW1.9 kmh NW 1.2 mph1.9 kmh 26.40 in894.0 mb - 0.00 in0.0 mm 0.01 in0.3 mm
04:25 PM 56.0°F13.3°C 22.4°F-5.3°C 27% Calm Calm -- 26.40 in894.0 mb - 0.00 in0.0 mm 0.01 in0.3 mm
04:30 PM 58.0°F14.4°C 23.3°F-4.8°C 26% Calm Calm -- 26.40 in894.0 mb - 0.00 in0.0 mm 0.01 in0.3 mm
04:35 PM 56.0°F13.3°C 22.4°F-5.3°C 27% Calm Calm -- 26.41 in894.3 mb - 0.00 in0.0 mm 0.01 in0.3 mm
04:40 PM 49.0°F9.4°C 23.8°F-4.6°C 37% Calm Calm -- 26.41 in894.3 mb - 0.00 in0.0 mm 0.01 in0.3 mm
04:45 PM 48.0°F8.9°C 24.2°F-4.3°C 39% Calm Calm -- 26.41 in894.3 mb - 0.00 in0.0 mm 0.01 in0.3 mm
04:50 PM 46.0°F7.8°C 21.8°F-5.7°C 38% Calm Calm -- 26.42 in894.7 mb - 0.00 in0.0 mm 0.01 in0.3 mm
04:55 PM 45.0°F7.2°C 19.6°F-6.9°C 36% Calm Calm -- 26.42 in894.7 mb - 0.00 in0.0 mm 0.01 in0.3 mm
05:00 PM 46.0°F7.8°C 21.8°F-5.7°C 38% Calm Calm -- 26.42 in894.7 mb - 0.00 in0.0 mm 0.01 in0.3 mm
05:10 PM 44.0°F6.7°C 25.0°F-3.9°C 47% Calm Calm -- 26.43 in895.0 mb - 0.00 in0.0 mm 0.01 in0.3 mm
05:15 PM 44.0°F6.7°C 22.4°F-5.3°C 42% Calm Calm -- 26.43 in895.0 mb - 0.00 in0.0 mm 0.01 in0.3 mm
05:20 PM 44.0°F6.7°C 21.8°F-5.7°C 41% Calm Calm -- 26.44 in895.4 mb - 0.00 in0.0 mm 0.01 in0.3 mm
05:25 PM 43.0°F6.1°C 22.5°F-5.3°C 44% 1.2 mph NNW1.9 kmh NNW 1.2 mph1.9 kmh 26.44 in895.4 mb - 0.00 in0.0 mm 0.01 in0.3 mm
05:30 PM 43.0°F6.1°C 22.0°F-5.6°C 43% Calm Calm 1.2 mph1.9 kmh 26.44 in895.4 mb - 0.00 in0.0 mm 0.01 in0.3 mm
05:35 PM 42.0°F5.6°C 23.2°F-4.9°C 47% Calm Calm -- 26.45 in895.7 mb - 0.00 in0.0 mm 0.01 in0.3 mm
05:40 PM 42.0°F5.6°C 21.6°F-5.8°C 44% Calm Calm -- 26.45 in895.7 mb - 0.00 in0.0 mm 0.01 in0.3 mm
05:45 PM 42.0°F5.6°C 23.7°F-4.6°C 48% Calm Calm -- 26.45 in895.7 mb - 0.00 in0.0 mm 0.01 in0.3 mm
05:50 PM 42.0°F5.6°C 22.7°F-5.2°C 46% Calm Calm -- 26.46 in896.0 mb - 0.00 in0.0 mm 0.01 in0.3 mm
05:55 PM 42.0°F5.6°C 22.2°F-5.4°C 45% Calm Calm -- 26.46 in896.0 mb - 0.00 in0.0 mm 0.01 in0.3 mm
06:00 PM 42.0°F5.6°C 27.0°F-2.8°C 55% Calm Calm -- 26.45 in895.7 mb - 0.00 in0.0 mm 0.01 in0.3 mm
06:10 PM 41.0°F5.0°C 26.5°F-3.1°C 56% Calm Calm -- 26.46 in896.0 mb - 0.00 in0.0 mm 0.01 in0.3 mm
06:15 PM 39.0°F3.9°C 25.5°F-3.6°C 58% Calm Calm -- 26.46 in896.0 mb - 0.00 in0.0 mm 0.01 in0.3 mm
06:20 PM 39.0°F3.9°C 25.5°F-3.6°C 58% Calm Calm -- 26.47 in896.4 mb - 0.00 in0.0 mm 0.01 in0.3 mm
06:25 PM 39.0°F3.9°C 24.2°F-4.3°C 55% Calm Calm -- 26.48 in896.7 mb - 0.00 in0.0 mm 0.01 in0.3 mm
06:30 PM 39.0°F3.9°C 24.6°F-4.1°C 56% Calm Calm -- 26.47 in896.4 mb - 0.00 in0.0 mm 0.01 in0.3 mm
06:35 PM 39.0°F3.9°C 25.0°F-3.9°C 57% Calm Calm -- 26.48 in896.7 mb - 0.00 in0.0 mm 0.01 in0.3 mm
06:40 PM 39.0°F3.9°C 25.9°F-3.4°C 59% Calm Calm -- 26.48 in896.7 mb - 0.00 in0.0 mm 0.01 in0.3 mm
06:45 PM 38.9°F3.8°C 26.2°F-3.2°C 60% Calm Calm -- 26.48 in896.7 mb - 0.00 in0.0 mm 0.01 in0.3 mm
06:50 PM 38.0°F3.3°C 24.9°F-3.9°C 59% Calm Calm -- 26.48 in896.7 mb - 0.00 in0.0 mm 0.01 in0.3 mm
06:55 PM 39.0°F3.9°C 25.5°F-3.6°C 58% Calm Calm -- 26.49 in897.1 mb - 0.00 in0.0 mm 0.01 in0.3 mm
07:00 PM 38.0°F3.3°C 26.1°F-3.3°C 62% Calm Calm -- 26.49 in897.1 mb - 0.00 in0.0 mm 0.01 in0.3 mm
07:10 PM 37.0°F2.8°C 24.0°F-4.4°C 59% Calm Calm -- 26.50 in897.4 mb - 0.00 in0.0 mm 0.01 in0.3 mm
07:15 PM 37.0°F2.8°C 24.8°F-4.0°C 61% Calm Calm -- 26.50 in897.4 mb - 0.00 in0.0 mm 0.01 in0.3 mm
07:20 PM 36.0°F2.2°C 24.2°F-4.3°C 62% Calm Calm -- 26.50 in897.4 mb - 0.00 in0.0 mm 0.01 in0.3 mm
07:25 PM 36.0°F2.2°C 23.0°F-5.0°C 59% Calm Calm -- 26.51 in897.7 mb - 0.00 in0.0 mm 0.01 in0.3 mm
07:30 PM 36.0°F2.2°C 23.4°F-4.8°C 60% Calm Calm -- 26.51 in897.7 mb - 0.00 in0.0 mm 0.01 in0.3 mm
07:35 PM 35.8°F2.1°C 23.6°F-4.7°C 61% Calm Calm -- 26.51 in897.7 mb - 0.00 in0.0 mm 0.01 in0.3 mm
07:40 PM 35.0°F1.7°C 22.5°F-5.3°C 60% Calm Calm -- 26.51 in897.7 mb - 0.00 in0.0 mm 0.01 in0.3 mm
07:45 PM 36.0°F2.2°C 22.6°F-5.2°C 58% Calm Calm -- 26.52 in898.1 mb - 0.00 in0.0 mm 0.01 in0.3 mm
07:50 PM 35.0°F1.7°C 23.3°F-4.8°C 62% Calm Calm -- 26.51 in897.7 mb - 0.00 in0.0 mm 0.01 in0.3 mm
07:55 PM 36.0°F2.2°C 23.0°F-5.0°C 59% Calm Calm -- 26.52 in898.1 mb - 0.00 in0.0 mm 0.01 in0.3 mm
08:00 PM 36.0°F2.2°C 24.2°F-4.3°C 62% Calm Calm -- 26.52 in898.1 mb - 0.00 in0.0 mm 0.01 in0.3 mm
08:10 PM 35.0°F1.7°C 23.3°F-4.8°C 62% Calm Calm -- 26.53 in898.4 mb - 0.00 in0.0 mm 0.01 in0.3 mm
08:15 PM 35.0°F1.7°C 22.9°F-5.1°C 61% Calm Calm -- 26.52 in898.1 mb - 0.00 in0.0 mm 0.01 in0.3 mm
08:20 PM 35.0°F1.7°C 23.3°F-4.8°C 62% Calm Calm -- 26.53 in898.4 mb - 0.00 in0.0 mm 0.01 in0.3 mm
08:25 PM 35.0°F1.7°C 24.0°F-4.4°C 64% Calm Calm -- 26.53 in898.4 mb - 0.00 in0.0 mm 0.01 in0.3 mm
08:30 PM 35.0°F1.7°C 24.4°F-4.2°C 65% Calm Calm -- 26.53 in898.4 mb - 0.00 in0.0 mm 0.01 in0.3 mm
08:35 PM 35.0°F1.7°C 24.4°F-4.2°C 65% Calm Calm -- 26.53 in898.4 mb - 0.00 in0.0 mm 0.01 in0.3 mm
08:40 PM 35.0°F1.7°C 22.9°F-5.1°C 61% Calm Calm -- 26.54 in898.7 mb - 0.00 in0.0 mm 0.01 in0.3 mm
08:45 PM 35.0°F1.7°C 23.7°F-4.6°C 63% Calm Calm -- 26.54 in898.7 mb - 0.00 in0.0 mm 0.01 in0.3 mm
08:50 PM 34.0°F1.1°C 23.5°F-4.7°C 65% Calm Calm -- 26.55 in899.1 mb - 0.00 in0.0 mm 0.01 in0.3 mm
08:55 PM 34.0°F1.1°C 23.8°F-4.6°C 66% Calm Calm -- 26.55 in899.1 mb - 0.00 in0.0 mm 0.01 in0.3 mm
09:00 PM 34.0°F1.1°C 23.8°F-4.6°C 66% Calm Calm -- 26.54 in898.7 mb - 0.00 in0.0 mm 0.01 in0.3 mm
09:10 PM 36.0°F2.2°C 23.8°F-4.6°C 61% Calm Calm -- 26.54 in898.7 mb - 0.00 in0.0 mm 0.01 in0.3 mm
09:15 PM 35.2°F1.8°C 23.9°F-4.5°C 63% Calm Calm -- 26.55 in899.1 mb - 0.00 in0.0 mm 0.01 in0.3 mm
09:20 PM 35.0°F1.7°C 24.0°F-4.4°C 64% Calm Calm -- 26.55 in899.1 mb - 0.00 in0.0 mm 0.01 in0.3 mm
09:25 PM 35.0°F1.7°C 23.7°F-4.6°C 63% Calm Calm -- 26.56 in899.4 mb - 0.00 in0.0 mm 0.01 in0.3 mm
09:30 PM 34.0°F1.1°C 23.5°F-4.7°C 65% Calm Calm -- 26.57 in899.8 mb - 0.00 in0.0 mm 0.01 in0.3 mm
09:35 PM 34.0°F1.1°C 24.2°F-4.3°C 67% Calm Calm -- 26.57 in899.8 mb - 0.00 in0.0 mm 0.01 in0.3 mm
09:40 PM 34.0°F1.1°C 23.5°F-4.7°C 65% Calm Calm -- 26.57 in899.8 mb - 0.00 in0.0 mm 0.01 in0.3 mm
09:45 PM 35.0°F1.7°C 22.9°F-5.1°C 61% Calm Calm -- 26.57 in899.8 mb - 0.00 in0.0 mm 0.01 in0.3 mm
09:50 PM 35.0°F1.7°C 24.4°F-4.2°C 65% Calm Calm -- 26.57 in899.8 mb - 0.00 in0.0 mm 0.01 in0.3 mm
09:55 PM 34.0°F1.1°C 23.8°F-4.6°C 66% Calm Calm -- 26.58 in900.1 mb - 0.00 in0.0 mm 0.01 in0.3 mm
10:00 PM 34.0°F1.1°C 23.8°F-4.6°C 66% Calm Calm -- 26.58 in900.1 mb - 0.00 in0.0 mm 0.01 in0.3 mm
10:10 PM 34.0°F1.1°C 23.1°F-4.9°C 64% Calm Calm -- 26.57 in899.8 mb - 0.00 in0.0 mm 0.01 in0.3 mm
10:15 PM 34.0°F1.1°C 23.1°F-4.9°C 64% Calm Calm -- 26.58 in900.1 mb - 0.00 in0.0 mm 0.01 in0.3 mm
10:20 PM 34.0°F1.1°C 22.7°F-5.2°C 63% Calm Calm -- 26.58 in900.1 mb - 0.00 in0.0 mm 0.01 in0.3 mm
10:25 PM 34.0°F1.1°C 23.1°F-4.9°C 64% Calm Calm -- 26.58 in900.1 mb - 0.00 in0.0 mm 0.01 in0.3 mm
10:30 PM 34.0°F1.1°C 24.2°F-4.3°C 67% Calm Calm -- 26.58 in900.1 mb - 0.00 in0.0 mm 0.01 in0.3 mm
10:35 PM 33.0°F0.6°C 22.9°F-5.1°C 66% Calm Calm -- 26.58 in900.1 mb - 0.00 in0.0 mm 0.01 in0.3 mm
10:40 PM 33.0°F0.6°C 22.9°F-5.1°C 66% Calm Calm -- 26.59 in900.4 mb - 0.00 in0.0 mm 0.01 in0.3 mm
10:45 PM 33.0°F0.6°C 22.9°F-5.1°C 66% Calm Calm -- 26.58 in900.1 mb - 0.00 in0.0 mm 0.01 in0.3 mm
10:50 PM 33.0°F0.6°C 22.1°F-5.5°C 64% Calm Calm -- 26.59 in900.4 mb - 0.00 in0.0 mm 0.01 in0.3 mm
10:55 PM 33.0°F0.6°C 22.1°F-5.5°C 64% Calm Calm -- 26.58 in900.1 mb - 0.00 in0.0 mm 0.01 in0.3 mm
11:00 PM 33.0°F0.6°C 21.8°F-5.7°C 63% Calm Calm -- 26.59 in900.4 mb - 0.00 in0.0 mm 0.01 in0.3 mm
11:10 PM 32.0°F0.0°C 21.9°F-5.6°C 66% Calm Calm -- 26.59 in900.4 mb - 0.00 in0.0 mm 0.01 in0.3 mm
11:15 PM 32.0°F0.0°C 22.3°F-5.4°C 67% Calm Calm -- 26.60 in900.8 mb - 0.00 in0.0 mm 0.01 in0.3 mm
11:20 PM 32.0°F0.0°C 22.3°F-5.4°C 67% Calm Calm -- 26.59 in900.4 mb - 0.00 in0.0 mm 0.01 in0.3 mm
11:25 PM 32.0°F0.0°C 22.3°F-5.4°C 67% Calm Calm -- 26.59 in900.4 mb - 0.00 in0.0 mm 0.01 in0.3 mm
11:30 PM 32.0°F0.0°C 21.6°F-5.8°C 65% Calm Calm -- 26.59 in900.4 mb - 0.00 in0.0 mm 0.01 in0.3 mm
11:35 PM 32.0°F0.0°C 22.3°F-5.4°C 67% Calm Calm -- 26.59 in900.4 mb - 0.00 in0.0 mm 0.01 in0.3 mm
11:40 PM 32.0°F0.0°C 23.0°F-5.0°C 69% Calm Calm -- 26.60 in900.8 mb - 0.00 in0.0 mm 0.01 in0.3 mm
11:45 PM 32.0°F0.0°C 22.3°F-5.4°C 67% Calm Calm -- 26.60 in900.8 mb - 0.00 in0.0 mm 0.01 in0.3 mm
11:50 PM 32.0°F0.0°C 21.6°F-5.8°C 65% Calm Calm -- 26.60 in900.8 mb - 0.00 in0.0 mm 0.01 in0.3 mm
11:55 PM 32.5°F0.3°C 22.0°F-5.6°C 65% Calm Calm -- 26.60 in900.8 mb - 0.00 in0.0 mm 0.01 in0.3 mm